sensor_id;sensor_type;location;lat;lon;timestamp;temperature;humidity
21811;DHT22;11067;48.788;9.208;2022-12-13T00:00:37;-4.50;99.90
21811;DHT22;11067;48.788;9.208;2022-12-13T00:05:29;-4.50;99.90
21811;DHT22;11067;48.788;9.208;2022-12-13T00:07:58;-4.50;99.90
21811;DHT22;11067;48.788;9.208;2022-12-13T00:10:24;-4.60;99.90
21811;DHT22;11067;48.788;9.208;2022-12-13T00:12:49;-4.70;99.90
21811;DHT22;11067;48.788;9.208;2022-12-13T00:15:15;-4.80;99.90
21811;DHT22;11067;48.788;9.208;2022-12-13T00:17:40;-4.80;99.90
21811;DHT22;11067;48.788;9.208;2022-12-13T00:20:06;-4.90;99.90
21811;DHT22;11067;48.788;9.208;2022-12-13T00:22:32;-4.80;99.90
21811;DHT22;11067;48.788;9.208;2022-12-13T00:24:57;-4.70;99.90
21811;DHT22;11067;48.788;9.208;2022-12-13T00:27:23;-4.70;99.90
21811;DHT22;11067;48.788;9.208;2022-12-13T00:29:49;-4.70;99.90
21811;DHT22;11067;48.788;9.208;2022-12-13T00:32:15;-4.70;99.90
21811;DHT22;11067;48.788;9.208;2022-12-13T00:34:41;-4.80;99.90
21811;DHT22;11067;48.788;9.208;2022-12-13T00:37:06;-4.80;99.90
21811;DHT22;11067;48.788;9.208;2022-12-13T00:39:32;-4.80;99.90
21811;DHT22;11067;48.788;9.208;2022-12-13T00:41:58;-4.80;99.90
21811;DHT22;11067;48.788;9.208;2022-12-13T00:44:23;-4.80;99.90
21811;DHT22;11067;48.788;9.208;2022-12-13T00:46:49;-4.80;99.90
21811;DHT22;11067;48.788;9.208;2022-12-13T00:49:16;-4.90;99.90
21811;DHT22;11067;48.788;9.208;2022-12-13T00:51:42;-4.80;99.90
21811;DHT22;11067;48.788;9.208;2022-12-13T00:54:09;-4.60;99.90
21811;DHT22;11067;48.788;9.208;2022-12-13T00:56:36;-4.70;99.90
21811;DHT22;11067;48.788;9.208;2022-12-13T00:59:02;-4.70;99.90
21811;DHT22;11067;48.788;9.208;2022-12-13T01:01:31;-4.70;99.90
21811;DHT22;11067;48.788;9.208;2022-12-13T01:03:59;-4.70;99.90
21811;DHT22;11067;48.788;9.208;2022-12-13T01:06:35;-4.70;99.90
21811;DHT22;11067;48.788;9.208;2022-12-13T01:09:01;-4.60;99.90
21811;DHT22;11067;48.788;9.208;2022-12-13T01:11:27;-4.60;99.90
21811;DHT22;11067;48.788;9.208;2022-12-13T01:13:53;-4.60;99.90
21811;DHT22;11067;48.788;9.208;2022-12-13T01:16:19;-4.60;99.90
21811;DHT22;11067;48.788;9.208;2022-12-13T01:18:45;-4.60;99.90
21811;DHT22;11067;48.788;9.208;2022-12-13T01:21:15;-4.60;99.90
21811;DHT22;11067;48.788;9.208;2022-12-13T01:23:41;-4.70;99.90
21811;DHT22;11067;48.788;9.208;2022-12-13T01:26:10;-4.80;99.90
21811;DHT22;11067;48.788;9.208;2022-12-13T01:28:36;-4.80;99.90
21811;DHT22;11067;48.788;9.208;2022-12-13T01:31:10;-4.80;99.90
21811;DHT22;11067;48.788;9.208;2022-12-13T01:33:36;-4.90;99.90
21811;DHT22;11067;48.788;9.208;2022-12-13T01:36:04;-4.90;99.90
21811;DHT22;11067;48.788;9.208;2022-12-13T01:38:30;-4.90;99.90
21811;DHT22;11067;48.788;9.208;2022-12-13T01:40:56;-4.90;99.90
21811;DHT22;11067;48.788;9.208;2022-12-13T01:43:28;-4.90;99.90
21811;DHT22;11067;48.788;9.208;2022-12-13T01:46:14;-5.00;99.90
21811;DHT22;11067;48.788;9.208;2022-12-13T01:48:54;-5.10;99.90
21811;DHT22;11067;48.788;9.208;2022-12-13T01:51:31;-5.20;99.90
21811;DHT22;11067;48.788;9.208;2022-12-13T01:53:59;-5.10;99.90
21811;DHT22;11067;48.788;9.208;2022-12-13T01:56:32;-5.20;99.90
21811;DHT22;11067;48.788;9.208;2022-12-13T01:59:02;-5.30;99.90
21811;DHT22;11067;48.788;9.208;2022-12-13T02:01:28;-5.30;99.90
21811;DHT22;11067;48.788;9.208;2022-12-13T02:03:54;-5.30;99.90
21811;DHT22;11067;48.788;9.208;2022-12-13T02:06:41;-5.20;99.90
21811;DHT22;11067;48.788;9.208;2022-12-13T02:09:09;-5.30;99.90
21811;DHT22;11067;48.788;9.208;2022-12-13T02:11:38;-5.30;99.90
21811;DHT22;11067;48.788;9.208;2022-12-13T02:14:05;-5.30;99.90
21811;DHT22;11067;48.788;9.208;2022-12-13T02:17:04;-5.20;99.90
21811;DHT22;11067;48.788;9.208;2022-12-13T02:20:03;-5.30;99.90
21811;DHT22;11067;48.788;9.208;2022-12-13T02:25:51;-5.30;99.90
21811;DHT22;11067;48.788;9.208;2022-12-13T02:28:27;-5.20;99.90
21811;DHT22;11067;48.788;9.208;2022-12-13T02:31:06;-5.30;99.90
21811;DHT22;11067;48.788;9.208;2022-12-13T02:39:02;-5.30;99.90
21811;DHT22;11067;48.788;9.208;2022-12-13T02:44:09;-5.40;99.90
21811;DHT22;11067;48.788;9.208;2022-12-13T02:46:42;-5.40;99.90
21811;DHT22;11067;48.788;9.208;2022-12-13T02:49:14;-5.50;99.90
21811;DHT22;11067;48.788;9.208;2022-12-13T02:51:42;-5.50;99.90
21811;DHT22;11067;48.788;9.208;2022-12-13T02:54:08;-5.50;99.90
21811;DHT22;11067;48.788;9.208;2022-12-13T02:56:34;-5.20;99.90
21811;DHT22;11067;48.788;9.208;2022-12-13T02:59:04;-5.30;99.90
21811;DHT22;11067;48.788;9.208;2022-12-13T03:04:42;-5.50;99.90
21811;DHT22;11067;48.788;9.208;2022-12-13T03:07:38;-5.50;99.90
21811;DHT22;11067;48.788;9.208;2022-12-13T03:10:14;-5.60;99.90
21811;DHT22;11067;48.788;9.208;2022-12-13T03:12:51;-5.60;99.90
21811;DHT22;11067;48.788;9.208;2022-12-13T03:16:08;-5.60;99.90
21811;DHT22;11067;48.788;9.208;2022-12-13T03:18:36;-5.60;99.90
21811;DHT22;11067;48.788;9.208;2022-12-13T03:21:07;-5.40;99.90
21811;DHT22;11067;48.788;9.208;2022-12-13T03:23:36;-5.40;99.90
21811;DHT22;11067;48.788;9.208;2022-12-13T03:26:20;-5.40;99.90
21811;DHT22;11067;48.788;9.208;2022-12-13T03:28:46;-5.40;99.90
21811;DHT22;11067;48.788;9.208;2022-12-13T03:31:11;-5.40;99.90
21811;DHT22;11067;48.788;9.208;2022-12-13T03:33:37;-5.50;99.90
21811;DHT22;11067;48.788;9.208;2022-12-13T03:36:03;-5.60;99.90
21811;DHT22;11067;48.788;9.208;2022-12-13T03:38:30;-5.50;99.90
21811;DHT22;11067;48.788;9.208;2022-12-13T03:40:58;-5.60;99.90
21811;DHT22;11067;48.788;9.208;2022-12-13T03:43:25;-5.70;99.90
21811;DHT22;11067;48.788;9.208;2022-12-13T03:45:52;-5.60;99.90
21811;DHT22;11067;48.788;9.208;2022-12-13T03:48:18;-5.70;99.90
21811;DHT22;11067;48.788;9.208;2022-12-13T03:50:44;-5.80;99.90
21811;DHT22;11067;48.788;9.208;2022-12-13T03:53:09;-5.70;99.90
21811;DHT22;11067;48.788;9.208;2022-12-13T03:55:35;-5.60;99.90
21811;DHT22;11067;48.788;9.208;2022-12-13T03:58:00;-5.60;99.90
21811;DHT22;11067;48.788;9.208;2022-12-13T04:00:26;-5.60;99.90
21811;DHT22;11067;48.788;9.208;2022-12-13T04:02:52;-5.50;99.90
21811;DHT22;11067;48.788;9.208;2022-12-13T04:05:18;-5.50;99.90
21811;DHT22;11067;48.788;9.208;2022-12-13T04:07:43;-5.50;99.90
21811;DHT22;11067;48.788;9.208;2022-12-13T04:10:09;-5.50;99.90
21811;DHT22;11067;48.788;9.208;2022-12-13T04:12:34;-5.60;99.90
21811;DHT22;11067;48.788;9.208;2022-12-13T04:15:18;-5.60;99.90
21811;DHT22;11067;48.788;9.208;2022-12-13T04:17:44;-5.70;99.90
21811;DHT22;11067;48.788;9.208;2022-12-13T04:20:10;-5.70;99.90
21811;DHT22;11067;48.788;9.208;2022-12-13T04:22:36;-5.70;99.90
21811;DHT22;11067;48.788;9.208;2022-12-13T04:25:02;-5.60;99.90
21811;DHT22;11067;48.788;9.208;2022-12-13T04:27:28;-5.50;99.90
21811;DHT22;11067;48.788;9.208;2022-12-13T04:29:53;-5.40;99.90
21811;DHT22;11067;48.788;9.208;2022-12-13T04:32:19;-5.50;99.90
21811;DHT22;11067;48.788;9.208;2022-12-13T04:34:44;-5.40;99.90
21811;DHT22;11067;48.788;9.208;2022-12-13T04:37:10;-5.50;99.90
21811;DHT22;11067;48.788;9.208;2022-12-13T04:39:35;-5.50;99.90
21811;DHT22;11067;48.788;9.208;2022-12-13T04:42:02;-5.50;99.90
21811;DHT22;11067;48.788;9.208;2022-12-13T04:44:27;-5.40;99.90
21811;DHT22;11067;48.788;9.208;2022-12-13T04:46:53;-5.30;99.90
21811;DHT22;11067;48.788;9.208;2022-12-13T04:49:18;-5.50;99.90
21811;DHT22;11067;48.788;9.208;2022-12-13T04:51:44;-5.50;99.90
21811;DHT22;11067;48.788;9.208;2022-12-13T04:54:09;-5.50;99.90
21811;DHT22;11067;48.788;9.208;2022-12-13T04:56:36;-5.50;99.90
21811;DHT22;11067;48.788;9.208;2022-12-13T04:59:02;-5.70;99.90
21811;DHT22;11067;48.788;9.208;2022-12-13T05:01:28;-5.60;99.90
21811;DHT22;11067;48.788;9.208;2022-12-13T05:03:53;-5.70;99.90
21811;DHT22;11067;48.788;9.208;2022-12-13T05:06:19;-5.70;99.90
21811;DHT22;11067;48.788;9.208;2022-12-13T05:08:44;-5.60;99.90
21811;DHT22;11067;48.788;9.208;2022-12-13T05:11:10;-5.50;99.90
21811;DHT22;11067;48.788;9.208;2022-12-13T05:13:36;-5.50;99.90
21811;DHT22;11067;48.788;9.208;2022-12-13T05:16:05;-5.60;99.90
21811;DHT22;11067;48.788;9.208;2022-12-13T05:18:32;-5.70;99.90
21811;DHT22;11067;48.788;9.208;2022-12-13T05:21:03;-5.60;99.90
21811;DHT22;11067;48.788;9.208;2022-12-13T05:23:29;-5.40;99.90
21811;DHT22;11067;48.788;9.208;2022-12-13T05:25:54;-5.40;99.90
21811;DHT22;11067;48.788;9.208;2022-12-13T05:28:20;-5.50;99.90
21811;DHT22;11067;48.788;9.208;2022-12-13T05:30:49;-5.60;99.90
21811;DHT22;11067;48.788;9.208;2022-12-13T05:33:15;-5.40;99.90
21811;DHT22;11067;48.788;9.208;2022-12-13T05:35:41;-5.50;99.90
21811;DHT22;11067;48.788;9.208;2022-12-13T05:38:06;-5.50;99.90
21811;DHT22;11067;48.788;9.208;2022-12-13T05:40:32;-5.40;99.90
21811;DHT22;11067;48.788;9.208;2022-12-13T05:42:58;-5.30;99.90
21811;DHT22;11067;48.788;9.208;2022-12-13T05:45:24;-5.40;99.90
21811;DHT22;11067;48.788;9.208;2022-12-13T05:47:49;-5.40;99.90
21811;DHT22;11067;48.788;9.208;2022-12-13T05:50:16;-5.30;99.90
21811;DHT22;11067;48.788;9.208;2022-12-13T05:52:42;-5.40;99.90
21811;DHT22;11067;48.788;9.208;2022-12-13T05:55:08;-5.40;99.90
21811;DHT22;11067;48.788;9.208;2022-12-13T05:57:34;-5.30;99.90
21811;DHT22;11067;48.788;9.208;2022-12-13T06:00:00;-5.30;99.90
21811;DHT22;11067;48.788;9.208;2022-12-13T06:02:25;-5.30;99.90
21811;DHT22;11067;48.788;9.208;2022-12-13T06:04:51;-5.40;99.90
21811;DHT22;11067;48.788;9.208;2022-12-13T06:07:16;-5.40;99.90
21811;DHT22;11067;48.788;9.208;2022-12-13T06:09:42;-5.40;99.90
21811;DHT22;11067;48.788;9.208;2022-12-13T06:12:08;-5.50;99.90
21811;DHT22;11067;48.788;9.208;2022-12-13T06:14:34;-5.50;99.90
21811;DHT22;11067;48.788;9.208;2022-12-13T06:17:00;-5.60;99.90
21811;DHT22;11067;48.788;9.208;2022-12-13T06:19:26;-5.70;99.90
21811;DHT22;11067;48.788;9.208;2022-12-13T06:21:53;-5.70;99.90
21811;DHT22;11067;48.788;9.208;2022-12-13T06:24:21;-5.60;99.90
21811;DHT22;11067;48.788;9.208;2022-12-13T06:26:48;-5.70;99.90
21811;DHT22;11067;48.788;9.208;2022-12-13T06:29:16;-5.60;99.90
21811;DHT22;11067;48.788;9.208;2022-12-13T06:31:41;-5.60;99.90
21811;DHT22;11067;48.788;9.208;2022-12-13T06:34:07;-5.70;99.90
21811;DHT22;11067;48.788;9.208;2022-12-13T06:36:33;-5.70;99.90
21811;DHT22;11067;48.788;9.208;2022-12-13T06:39:05;-5.60;99.90
21811;DHT22;11067;48.788;9.208;2022-12-13T06:41:32;-5.50;99.90
21811;DHT22;11067;48.788;9.208;2022-12-13T06:43:58;-5.50;99.90
21811;DHT22;11067;48.788;9.208;2022-12-13T06:46:24;-5.60;99.90
21811;DHT22;11067;48.788;9.208;2022-12-13T06:48:51;-5.50;99.90
21811;DHT22;11067;48.788;9.208;2022-12-13T06:51:16;-5.60;99.90
21811;DHT22;11067;48.788;9.208;2022-12-13T06:53:42;-5.60;99.90
21811;DHT22;11067;48.788;9.208;2022-12-13T06:56:10;-5.60;99.90
21811;DHT22;11067;48.788;9.208;2022-12-13T06:58:36;-5.50;99.90
21811;DHT22;11067;48.788;9.208;2022-12-13T07:01:07;-5.40;99.90
21811;DHT22;11067;48.788;9.208;2022-12-13T07:03:34;-5.50;99.90
21811;DHT22;11067;48.788;9.208;2022-12-13T07:06:04;-5.60;99.90
21811;DHT22;11067;48.788;9.208;2022-12-13T07:08:30;-5.70;99.90
21811;DHT22;11067;48.788;9.208;2022-12-13T07:10:56;-5.60;99.90
21811;DHT22;11067;48.788;9.208;2022-12-13T07:13:22;-5.60;99.90
21811;DHT22;11067;48.788;9.208;2022-12-13T07:15:48;-5.70;99.90
21811;DHT22;11067;48.788;9.208;2022-12-13T07:18:14;-5.60;99.90
21811;DHT22;11067;48.788;9.208;2022-12-13T07:20:41;-5.40;99.90
21811;DHT22;11067;48.788;9.208;2022-12-13T07:23:08;-5.40;99.90
21811;DHT22;11067;48.788;9.208;2022-12-13T07:25:34;-5.30;99.90
21811;DHT22;11067;48.788;9.208;2022-12-13T07:28:02;-5.30;99.90
21811;DHT22;11067;48.788;9.208;2022-12-13T07:30:30;-5.30;99.90
21811;DHT22;11067;48.788;9.208;2022-12-13T07:32:55;-5.30;99.90
21811;DHT22;11067;48.788;9.208;2022-12-13T07:35:21;-5.10;99.90
21811;DHT22;11067;48.788;9.208;2022-12-13T07:37:46;-5.20;99.90
21811;DHT22;11067;48.788;9.208;2022-12-13T07:40:12;-5.10;99.90
21811;DHT22;11067;48.788;9.208;2022-12-13T07:42:38;-5.10;99.90
21811;DHT22;11067;48.788;9.208;2022-12-13T07:45:03;-5.10;99.90
21811;DHT22;11067;48.788;9.208;2022-12-13T07:47:30;-5.10;99.90
21811;DHT22;11067;48.788;9.208;2022-12-13T07:49:57;-5.10;99.90
21811;DHT22;11067;48.788;9.208;2022-12-13T07:52:22;-5.10;99.90
21811;DHT22;11067;48.788;9.208;2022-12-13T07:54:48;-4.90;99.90
21811;DHT22;11067;48.788;9.208;2022-12-13T07:57:13;-4.80;99.90
21811;DHT22;11067;48.788;9.208;2022-12-13T07:59:39;-4.80;99.90
21811;DHT22;11067;48.788;9.208;2022-12-13T08:02:05;-4.80;99.90
21811;DHT22;11067;48.788;9.208;2022-12-13T08:04:31;-4.80;99.90
21811;DHT22;11067;48.788;9.208;2022-12-13T08:06:57;-4.70;99.90
21811;DHT22;11067;48.788;9.208;2022-12-13T08:09:22;-4.90;99.90
21811;DHT22;11067;48.788;9.208;2022-12-13T08:11:48;-4.80;99.90
21811;DHT22;11067;48.788;9.208;2022-12-13T08:14:13;-4.80;99.90
21811;DHT22;11067;48.788;9.208;2022-12-13T08:16:39;-4.70;99.90
21811;DHT22;11067;48.788;9.208;2022-12-13T08:19:04;-4.70;99.90
21811;DHT22;11067;48.788;9.208;2022-12-13T08:21:35;-4.70;99.90
21811;DHT22;11067;48.788;9.208;2022-12-13T08:24:00;-4.60;99.90
21811;DHT22;11067;48.788;9.208;2022-12-13T08:26:26;-4.60;99.90
21811;DHT22;11067;48.788;9.208;2022-12-13T08:28:51;-4.60;99.90
21811;DHT22;11067;48.788;9.208;2022-12-13T08:31:17;-4.40;99.90
21811;DHT22;11067;48.788;9.208;2022-12-13T08:33:42;-4.40;99.90
21811;DHT22;11067;48.788;9.208;2022-12-13T08:36:12;-4.40;99.90
21811;DHT22;11067;48.788;9.208;2022-12-13T08:38:40;-4.40;99.90
21811;DHT22;11067;48.788;9.208;2022-12-13T08:41:06;-4.30;99.90
21811;DHT22;11067;48.788;9.208;2022-12-13T08:43:32;-4.30;99.90
21811;DHT22;11067;48.788;9.208;2022-12-13T08:45:57;-4.30;99.90
21811;DHT22;11067;48.788;9.208;2022-12-13T08:48:23;-4.40;99.90
21811;DHT22;11067;48.788;9.208;2022-12-13T08:50:48;-4.40;99.90
21811;DHT22;11067;48.788;9.208;2022-12-13T08:53:14;-4.40;99.90
21811;DHT22;11067;48.788;9.208;2022-12-13T08:55:40;-4.40;99.90
21811;DHT22;11067;48.788;9.208;2022-12-13T08:58:05;-4.20;99.90
21811;DHT22;11067;48.788;9.208;2022-12-13T09:00:36;-4.20;99.90
21811;DHT22;11067;48.788;9.208;2022-12-13T09:03:03;-4.10;99.90
21811;DHT22;11067;48.788;9.208;2022-12-13T09:05:29;-4.00;99.90
21811;DHT22;11067;48.788;9.208;2022-12-13T09:07:55;-4.00;99.90
21811;DHT22;11067;48.788;9.208;2022-12-13T09:10:21;-3.80;99.90
21811;DHT22;11067;48.788;9.208;2022-12-13T09:12:47;-3.70;99.90
21811;DHT22;11067;48.788;9.208;2022-12-13T09:15:12;-3.70;99.90
21811;DHT22;11067;48.788;9.208;2022-12-13T09:17:38;-3.80;99.90
21811;DHT22;11067;48.788;9.208;2022-12-13T09:20:06;-3.70;99.90
21811;DHT22;11067;48.788;9.208;2022-12-13T09:22:34;-3.60;99.90
21811;DHT22;11067;48.788;9.208;2022-12-13T09:25:00;-3.40;99.90
21811;DHT22;11067;48.788;9.208;2022-12-13T09:27:27;-3.50;99.90
21811;DHT22;11067;48.788;9.208;2022-12-13T09:29:52;-3.50;99.90
21811;DHT22;11067;48.788;9.208;2022-12-13T09:32:18;-3.30;99.90
21811;DHT22;11067;48.788;9.208;2022-12-13T09:34:44;-3.20;99.90
21811;DHT22;11067;48.788;9.208;2022-12-13T09:37:09;-3.10;99.90
21811;DHT22;11067;48.788;9.208;2022-12-13T09:39:37;-3.00;99.90
21811;DHT22;11067;48.788;9.208;2022-12-13T09:42:03;-2.90;99.90
21811;DHT22;11067;48.788;9.208;2022-12-13T09:44:38;-2.90;99.90
21811;DHT22;11067;48.788;9.208;2022-12-13T09:47:11;-2.80;99.90
21811;DHT22;11067;48.788;9.208;2022-12-13T09:49:42;-2.70;99.90
21811;DHT22;11067;48.788;9.208;2022-12-13T09:52:13;-2.80;99.90
21811;DHT22;11067;48.788;9.208;2022-12-13T09:54:39;-2.80;99.90
21811;DHT22;11067;48.788;9.208;2022-12-13T09:57:15;-2.90;99.90
21811;DHT22;11067;48.788;9.208;2022-12-13T09:59:42;-2.90;99.90
21811;DHT22;11067;48.788;9.208;2022-12-13T10:02:16;-2.80;99.90
21811;DHT22;11067;48.788;9.208;2022-12-13T10:04:45;-2.90;99.90
21811;DHT22;11067;48.788;9.208;2022-12-13T10:07:19;-2.90;99.90
21811;DHT22;11067;48.788;9.208;2022-12-13T10:09:45;-2.90;99.90
21811;DHT22;11067;48.788;9.208;2022-12-13T10:12:13;-2.70;99.90
21811;DHT22;11067;48.788;9.208;2022-12-13T10:14:44;-2.70;99.90
21811;DHT22;11067;48.788;9.208;2022-12-13T10:17:16;-2.70;99.90
21811;DHT22;11067;48.788;9.208;2022-12-13T10:19:45;-2.80;99.90
21811;DHT22;11067;48.788;9.208;2022-12-13T10:22:14;-2.70;99.90
21811;DHT22;11067;48.788;9.208;2022-12-13T10:24:53;-2.60;99.90
21811;DHT22;11067;48.788;9.208;2022-12-13T10:27:27;-2.60;99.90
21811;DHT22;11067;48.788;9.208;2022-12-13T10:35:18;-2.50;99.90
21811;DHT22;11067;48.788;9.208;2022-12-13T10:37:45;-2.50;99.90
21811;DHT22;11067;48.788;9.208;2022-12-13T10:43:15;-2.20;99.90
21811;DHT22;11067;48.788;9.208;2022-12-13T10:45:42;-2.20;99.90
21811;DHT22;11067;48.788;9.208;2022-12-13T10:50:57;-2.00;99.90
21811;DHT22;11067;48.788;9.208;2022-12-13T10:53:28;-2.10;99.90
21811;DHT22;11067;48.788;9.208;2022-12-13T10:55:55;-2.00;99.90
21811;DHT22;11067;48.788;9.208;2022-12-13T10:58:21;-2.10;99.90
21811;DHT22;11067;48.788;9.208;2022-12-13T11:00:47;-2.10;99.90
21811;DHT22;11067;48.788;9.208;2022-12-13T11:03:31;-2.10;99.90
21811;DHT22;11067;48.788;9.208;2022-12-13T11:06:10;-2.00;99.90
21811;DHT22;11067;48.788;9.208;2022-12-13T11:08:37;-1.80;99.90
21811;DHT22;11067;48.788;9.208;2022-12-13T11:11:07;-1.70;99.90
21811;DHT22;11067;48.788;9.208;2022-12-13T11:13:58;-1.60;99.90
21811;DHT22;11067;48.788;9.208;2022-12-13T11:16:35;-1.50;99.90
21811;DHT22;11067;48.788;9.208;2022-12-13T11:19:15;-1.30;99.90
21811;DHT22;11067;48.788;9.208;2022-12-13T11:21:47;-1.50;99.90
21811;DHT22;11067;48.788;9.208;2022-12-13T11:24:23;-1.40;99.90
21811;DHT22;11067;48.788;9.208;2022-12-13T11:26:56;-1.60;99.90
21811;DHT22;11067;48.788;9.208;2022-12-13T11:30:23;-1.50;99.90
21811;DHT22;11067;48.788;9.208;2022-12-13T11:37:41;-1.40;99.90
21811;DHT22;11067;48.788;9.208;2022-12-13T11:40:24;-1.30;99.90
21811;DHT22;11067;48.788;9.208;2022-12-13T11:45:32;-1.10;99.90
21811;DHT22;11067;48.788;9.208;2022-12-13T11:48:16;-1.00;99.90
21811;DHT22;11067;48.788;9.208;2022-12-13T11:50:49;-1.30;99.90
21811;DHT22;11067;48.788;9.208;2022-12-13T11:58:38;-0.90;99.90
21811;DHT22;11067;48.788;9.208;2022-12-13T12:01:11;-0.80;99.90
21811;DHT22;11067;48.788;9.208;2022-12-13T12:03:48;-0.90;99.90
21811;DHT22;11067;48.788;9.208;2022-12-13T12:06:26;-1.10;99.90
21811;DHT22;11067;48.788;9.208;2022-12-13T12:09:03;-1.10;99.90
21811;DHT22;11067;48.788;9.208;2022-12-13T12:16:54;-0.90;99.90
21811;DHT22;11067;48.788;9.208;2022-12-13T12:19:28;-0.90;99.90
21811;DHT22;11067;48.788;9.208;2022-12-13T12:25:22;-1.00;99.90
21811;DHT22;11067;48.788;9.208;2022-12-13T12:31:19;-1.00;99.90
21811;DHT22;11067;48.788;9.208;2022-12-13T12:34:02;-0.80;99.90
21811;DHT22;11067;48.788;9.208;2022-12-13T12:39:33;-0.60;99.90
21811;DHT22;11067;48.788;9.208;2022-12-13T12:45:27;-0.70;99.90
21811;DHT22;11067;48.788;9.208;2022-12-13T12:48:17;-0.80;99.90
21811;DHT22;11067;48.788;9.208;2022-12-13T12:56:47;-0.80;99.90
21811;DHT22;11067;48.788;9.208;2022-12-13T13:01:59;-0.90;99.90
21811;DHT22;11067;48.788;9.208;2022-12-13T13:04:36;-0.80;99.90
21811;DHT22;11067;48.788;9.208;2022-12-13T13:07:13;-0.70;99.90
21811;DHT22;11067;48.788;9.208;2022-12-13T13:09:40;-0.60;99.90
21811;DHT22;11067;48.788;9.208;2022-12-13T13:12:08;-0.80;99.90
21811;DHT22;11067;48.788;9.208;2022-12-13T13:14:36;-0.70;99.90
21811;DHT22;11067;48.788;9.208;2022-12-13T13:19:52;-0.50;99.90
21811;DHT22;11067;48.788;9.208;2022-12-13T13:22:34;-0.40;99.90
21811;DHT22;11067;48.788;9.208;2022-12-13T13:25:21;-0.50;99.90
21811;DHT22;11067;48.788;9.208;2022-12-13T13:27:48;-0.40;99.90
21811;DHT22;11067;48.788;9.208;2022-12-13T13:30:16;-0.10;99.90
21811;DHT22;11067;48.788;9.208;2022-12-13T13:32:43;-0.10;99.90
21811;DHT22;11067;48.788;9.208;2022-12-13T13:37:53;-0.20;99.90
21811;DHT22;11067;48.788;9.208;2022-12-13T13:40:30;-0.30;99.90
21811;DHT22;11067;48.788;9.208;2022-12-13T13:43:10;-0.30;99.90
21811;DHT22;11067;48.788;9.208;2022-12-13T13:48:59;-0.40;99.90
21811;DHT22;11067;48.788;9.208;2022-12-13T13:57:08;-0.40;99.90
21811;DHT22;11067;48.788;9.208;2022-12-13T14:11:02;-0.40;99.90
21811;DHT22;11067;48.788;9.208;2022-12-13T14:14:07;-0.30;99.90
21811;DHT22;11067;48.788;9.208;2022-12-13T14:16:50;-0.30;99.90
21811;DHT22;11067;48.788;9.208;2022-12-13T14:19:53;-0.30;99.90
21811;DHT22;11067;48.788;9.208;2022-12-13T14:22:32;-0.30;99.90
21811;DHT22;11067;48.788;9.208;2022-12-13T14:27:33;-0.30;99.90
21811;DHT22;11067;48.788;9.208;2022-12-13T14:30:01;-0.20;99.90
21811;DHT22;11067;48.788;9.208;2022-12-13T14:32:29;-0.30;99.90
21811;DHT22;11067;48.788;9.208;2022-12-13T14:34:56;-0.30;99.90
21811;DHT22;11067;48.788;9.208;2022-12-13T14:37:27;-0.30;99.90
21811;DHT22;11067;48.788;9.208;2022-12-13T14:39:55;-0.30;99.90
21811;DHT22;11067;48.788;9.208;2022-12-13T14:44:51;-0.30;99.90
21811;DHT22;11067;48.788;9.208;2022-12-13T14:47:17;-0.20;99.90
21811;DHT22;11067;48.788;9.208;2022-12-13T14:49:45;-0.20;99.90
21811;DHT22;11067;48.788;9.208;2022-12-13T14:52:23;-0.20;99.90
21811;DHT22;11067;48.788;9.208;2022-12-13T14:54:55;-0.30;99.90
21811;DHT22;11067;48.788;9.208;2022-12-13T14:57:23;-0.30;99.90
21811;DHT22;11067;48.788;9.208;2022-12-13T14:59:51;-0.30;99.90
21811;DHT22;11067;48.788;9.208;2022-12-13T15:02:23;-0.30;99.90
21811;DHT22;11067;48.788;9.208;2022-12-13T15:04:55;-0.30;99.90
21811;DHT22;11067;48.788;9.208;2022-12-13T15:09:53;-0.40;99.90
21811;DHT22;11067;48.788;9.208;2022-12-13T15:12:21;-0.40;99.90
21811;DHT22;11067;48.788;9.208;2022-12-13T15:14:54;-0.50;99.90
21811;DHT22;11067;48.788;9.208;2022-12-13T15:19:56;-0.60;99.90
21811;DHT22;11067;48.788;9.208;2022-12-13T15:22:22;-0.50;99.90
21811;DHT22;11067;48.788;9.208;2022-12-13T15:24:48;-0.50;99.90
21811;DHT22;11067;48.788;9.208;2022-12-13T15:27:15;-0.60;99.90
21811;DHT22;11067;48.788;9.208;2022-12-13T15:29:42;-0.60;99.90
21811;DHT22;11067;48.788;9.208;2022-12-13T15:32:12;-0.70;99.90
21811;DHT22;11067;48.788;9.208;2022-12-13T15:34:41;-0.70;99.90
21811;DHT22;11067;48.788;9.208;2022-12-13T15:39:41;-0.70;99.90
21811;DHT22;11067;48.788;9.208;2022-12-13T15:42:22;-0.70;99.90
21811;DHT22;11067;48.788;9.208;2022-12-13T15:44:54;-0.70;99.90
21811;DHT22;11067;48.788;9.208;2022-12-13T15:47:21;-0.80;99.90
21811;DHT22;11067;48.788;9.208;2022-12-13T15:49:56;-0.80;99.90
21811;DHT22;11067;48.788;9.208;2022-12-13T15:52:36;-0.70;99.90
21811;DHT22;11067;48.788;9.208;2022-12-13T15:57:45;-0.80;99.90
21811;DHT22;11067;48.788;9.208;2022-12-13T16:03:13;-0.90;99.90
21811;DHT22;11067;48.788;9.208;2022-12-13T16:05:48;-0.90;99.90
21811;DHT22;11067;48.788;9.208;2022-12-13T16:08:26;-0.90;99.90
21811;DHT22;11067;48.788;9.208;2022-12-13T16:10:53;-0.90;99.90
21811;DHT22;11067;48.788;9.208;2022-12-13T16:13:24;-1.00;99.90
21811;DHT22;11067;48.788;9.208;2022-12-13T16:15:52;-1.00;99.90
21811;DHT22;11067;48.788;9.208;2022-12-13T16:18:21;-1.00;99.90
21811;DHT22;11067;48.788;9.208;2022-12-13T16:20:47;-1.00;99.90
21811;DHT22;11067;48.788;9.208;2022-12-13T16:23:14;-1.00;99.90
21811;DHT22;11067;48.788;9.208;2022-12-13T16:25:40;-1.10;99.90
21811;DHT22;11067;48.788;9.208;2022-12-13T16:28:06;-1.00;99.90
21811;DHT22;11067;48.788;9.208;2022-12-13T16:33:21;-1.10;99.90
21811;DHT22;11067;48.788;9.208;2022-12-13T16:35:47;-1.10;99.90
21811;DHT22;11067;48.788;9.208;2022-12-13T16:38:14;-1.10;99.90
21811;DHT22;11067;48.788;9.208;2022-12-13T16:40:41;-1.20;99.90
21811;DHT22;11067;48.788;9.208;2022-12-13T16:43:15;-1.20;99.90
21811;DHT22;11067;48.788;9.208;2022-12-13T16:45:43;-1.20;99.90
21811;DHT22;11067;48.788;9.208;2022-12-13T16:48:10;-1.30;99.90
21811;DHT22;11067;48.788;9.208;2022-12-13T16:50:38;-1.30;99.90
21811;DHT22;11067;48.788;9.208;2022-12-13T16:53:05;-1.30;99.90
21811;DHT22;11067;48.788;9.208;2022-12-13T16:55:31;-1.30;99.90
21811;DHT22;11067;48.788;9.208;2022-12-13T16:58:02;-1.30;99.90
21811;DHT22;11067;48.788;9.208;2022-12-13T17:00:28;-1.30;99.90
21811;DHT22;11067;48.788;9.208;2022-12-13T17:02:55;-1.40;99.90
21811;DHT22;11067;48.788;9.208;2022-12-13T17:05:21;-1.40;99.90
21811;DHT22;11067;48.788;9.208;2022-12-13T17:07:47;-1.40;99.90
21811;DHT22;11067;48.788;9.208;2022-12-13T17:10:13;-1.50;99.90
21811;DHT22;11067;48.788;9.208;2022-12-13T17:12:39;-1.40;99.90
21811;DHT22;11067;48.788;9.208;2022-12-13T17:15:05;-1.50;99.90
21811;DHT22;11067;48.788;9.208;2022-12-13T17:17:31;-1.50;99.90
21811;DHT22;11067;48.788;9.208;2022-12-13T17:19:56;-1.60;99.90
21811;DHT22;11067;48.788;9.208;2022-12-13T17:22:22;-1.50;99.90
21811;DHT22;11067;48.788;9.208;2022-12-13T17:24:47;-1.60;99.90
21811;DHT22;11067;48.788;9.208;2022-12-13T17:27:13;-1.60;99.90
21811;DHT22;11067;48.788;9.208;2022-12-13T17:29:38;-1.60;99.90
21811;DHT22;11067;48.788;9.208;2022-12-13T17:32:04;-1.60;99.90
21811;DHT22;11067;48.788;9.208;2022-12-13T17:34:30;-1.60;99.90
21811;DHT22;11067;48.788;9.208;2022-12-13T17:36:55;-1.60;99.90